Time;durP1;ratioP1;P1;durP2;ratioP2;P2;SDS_P1;SDS_P2;PMS_P1;PMS_P2;Temp;Humidity;BMP_temperature;BMP_pressure;BME280_temperature;BME280_humidity;BME280_pressure;Samples;Min_cycle;Max_cycle;Signal;HPM_P1;HPM_P2
2021/07/21 00:00:08;;;;;;;47.90;43.90;;;;;;;22.61;100.00;100569.81;4917124;29;20492;-78
2021/07/21 00:02:35;;;;;;;51.43;47.43;;;;;;;22.58;100.00;100570.41;4915672;29;20060;-79
2021/07/21 00:05:03;;;;;;;57.53;52.92;;;;;;;22.69;100.00;100571.88;4916343;29;20068;-78
2021/07/21 00:07:30;;;;;;;59.90;55.03;;;;;;;22.46;100.00;100575.44;4916012;29;20076;-83
2021/07/21 00:09:57;;;;;;;59.47;54.75;;;;;;;22.36;100.00;100577.16;4915523;29;20048;-79
2021/07/21 00:15:11;;;;;;;55.50;50.95;;;;;;;22.31;100.00;100584.53;4914332;29;20507;-78
2021/07/21 00:17:38;;;;;;;55.88;50.72;;;;;;;22.39;100.00;100578.44;4916066;29;20055;-84
2021/07/21 00:20:07;;;;;;;56.97;52.47;;;;;;;22.29;100.00;100578.56;4915865;29;20068;-78
2021/07/21 00:22:36;;;;;;;57.70;53.17;;;;;;;22.59;100.00;100578.22;4917077;29;20059;-79
2021/07/21 00:25:05;;;;;;;51.65;47.38;;;;;;;22.47;100.00;100577.81;4920591;29;20063;-80
2021/07/21 00:27:32;;;;;;;57.78;52.97;;;;;;;22.16;100.00;100583.59;4919461;29;20048;-79
2021/07/21 00:29:59;;;;;;;54.78;50.42;;;;;;;22.15;100.00;100591.97;4919750;29;20056;-79
2021/07/21 00:32:27;;;;;;;64.10;59.40;;;;;;;22.21;100.00;100587.31;4919641;29;20047;-79
2021/07/21 00:34:54;;;;;;;60.28;55.63;;;;;;;22.64;100.00;100586.28;4919621;29;20485;-79
2021/07/21 00:37:20;;;;;;;56.08;51.70;;;;;;;22.51;100.00;100580.75;4919805;29;20486;-78
2021/07/21 00:39:47;;;;;;;55.33;51.40;;;;;;;22.70;100.00;100573.50;4919331;29;20067;-79
2021/07/21 00:42:14;;;;;;;54.67;49.75;;;;;;;22.24;100.00;100584.03;4920244;29;20059;-78
2021/07/21 00:44:41;;;;;;;60.85;55.50;;;;;;;22.82;100.00;100579.28;4919887;29;20405;-77
2021/07/21 00:47:08;;;;;;;53.83;49.42;;;;;;;22.48;100.00;100576.75;4919548;29;20421;-78
2021/07/21 00:49:36;;;;;;;55.25;50.92;;;;;;;22.11;100.00;100580.09;4919659;29;20098;-78
2021/07/21 00:52:05;;;;;;;52.88;48.67;;;;;;;22.18;100.00;100578.69;4919456;29;20059;-79
2021/07/21 00:54:33;;;;;;;50.92;46.80;;;;;;;22.75;100.00;100573.41;4920681;29;20111;-79
2021/07/21 00:57:00;;;;;;;54.08;49.63;;;;;;;22.50;100.00;100584.56;4919336;29;20055;-79
2021/07/21 00:59:28;;;;;;;62.97;57.67;;;;;;;21.75;100.00;100591.22;4917450;29;20119;-79
2021/07/21 01:01:55;;;;;;;70.40;64.55;;;;;;;23.51;100.00;100590.53;4918634;29;20529;-78
2021/07/21 01:04:22;;;;;;;56.95;52.42;;;;;;;22.11;100.00;100597.13;4919188;29;20059;-79
2021/07/21 01:06:53;;;;;;;60.30;55.50;;;;;;;22.03;100.00;100591.50;4919230;29;20496;-79
2021/07/21 01:09:20;;;;;;;59.58;54.88;;;;;;;21.81;100.00;100583.88;4919564;29;20067;-79
2021/07/21 01:11:58;;;;;;;61.13;55.83;;;;;;;21.70;100.00;100588.59;4918656;29;20048;-79
2021/07/21 01:14:31;;;;;;;60.47;55.55;;;;;;;21.77;100.00;100601.78;4918539;29;20059;-79
2021/07/21 01:17:01;;;;;;;62.63;57.53;;;;;;;21.84;100.00;100594.13;4918268;29;20052;-78
2021/07/21 01:20:05;;;;;;;62.25;57.00;;;;;;;22.12;100.00;100598.75;4918859;29;20052;-79
2021/07/21 01:22:36;;;;;;;58.20;53.53;;;;;;;21.77;100.00;100596.38;4917138;29;20044;-79
2021/07/21 01:25:12;;;;;;;54.20;49.70;;;;;;;21.91;100.00;100587.31;4918217;29;20060;-79
2021/07/21 01:27:43;;;;;;;59.88;54.53;;;;;;;22.21;100.00;100590.03;4915829;29;20048;-79
2021/07/21 01:30:12;;;;;;;60.13;55.15;;;;;;;22.32;100.00;100592.34;4919639;29;20052;-80
2021/07/21 01:32:42;;;;;;;58.25;53.25;;;;;;;21.73;100.00;100593.44;4918023;29;20433;-79
2021/07/21 01:35:15;;;;;;;59.22;54.13;;;;;;;21.50;100.00;100595.75;4918070;29;20044;-78
2021/07/21 01:37:48;;;;;;;67.82;61.75;;;;;;;21.63;100.00;100590.78;4918586;29;20048;-79
2021/07/21 01:40:21;;;;;;;57.00;51.92;;;;;;;21.73;100.00;100596.13;4917998;29;20556;-79
2021/07/21 01:42:52;;;;;;;59.88;54.67;;;;;;;21.45;100.00;100590.41;4918277;29;20406;-80
2021/07/21 01:45:19;;;;;;;55.28;50.33;;;;;;;21.46;100.00;100592.00;4919703;29;20117;-79
2021/07/21 01:47:48;;;;;;;64.38;59.17;;;;;;;21.30;100.00;100593.16;4918513;29;20059;-80
2021/07/21 01:50:16;;;;;;;60.92;55.63;;;;;;;21.31;100.00;100602.09;4918265;29;20071;-79
2021/07/21 01:52:48;;;;;;;65.72;60.03;;;;;;;21.32;100.00;100599.09;4909916;29;20051;-82
2021/07/21 01:55:16;;;;;;;63.57;58.40;;;;;;;21.33;100.00;100597.19;4918021;29;20048;-79
2021/07/21 01:57:46;;;;;;;59.72;54.40;;;;;;;21.28;100.00;100596.16;4918156;29;20060;-83
2021/07/21 02:02:51;;;;;;;63.80;58.53;;;;;;;21.24;100.00;100602.38;4949049;23;20135;-79
2021/07/21 02:05:20;;;;;;;67.70;62.03;;;;;;;21.03;100.00;100607.13;4924874;29;20067;-78
2021/07/21 02:07:48;;;;;;;63.05;57.78;;;;;;;21.16;100.00;100601.09;4930479;29;20051;-78
2021/07/21 02:10:19;;;;;;;62.85;57.55;;;;;;;21.03;100.00;100599.81;4932653;29;20477;-78
2021/07/21 02:12:49;;;;;;;61.53;56.63;;;;;;;21.22;100.00;100605.38;4930961;29;20056;-81
2021/07/21 02:15:17;;;;;;;62.13;56.83;;;;;;;21.25;100.00;100606.72;4931397;29;20047;-79
2021/07/21 02:17:45;;;;;;;65.53;60.08;;;;;;;21.03;100.00;100605.22;4928013;29;20132;-80
2021/07/21 02:20:14;;;;;;;56.40;51.67;;;;;;;22.14;100.00;100610.06;4934656;29;20088;-78
2021/07/21 02:22:43;;;;;;;56.22;51.40;;;;;;;21.31;100.00;100613.69;4931137;29;20048;-80
2021/07/21 02:25:12;;;;;;;60.65;55.42;;;;;;;21.30;100.00;100609.38;4931239;29;20067;-80
2021/07/21 02:27:41;;;;;;;64.93;59.53;;;;;;;21.19;100.00;100608.63;4925781;29;20048;-80
2021/07/21 02:30:10;;;;;;;68.55;63.05;;;;;;;21.50;100.00;100614.66;4921974;29;20411;-80
2021/07/21 02:32:41;;;;;;;62.58;57.38;;;;;;;21.41;100.00;100610.94;4925853;29;20048;-78
2021/07/21 02:35:09;;;;;;;76.85;70.68;;;;;;;22.23;100.00;100613.00;4924248;29;20058;-78
2021/07/21 02:37:37;;;;;;;63.38;57.75;;;;;;;21.35;100.00;100606.63;4929041;29;20055;-79
2021/07/21 02:40:07;;;;;;;65.60;59.90;;;;;;;21.06;100.00;100617.38;4926966;29;20048;-80
2021/07/21 02:42:34;;;;;;;87.47;80.82;;;;;;;24.11;100.00;100614.19;4929982;29;20047;-78
2021/07/21 02:45:01;;;;;;;67.43;62.10;;;;;;;24.92;100.00;100602.88;4932298;29;20063;-78
2021/07/21 02:47:28;;;;;;;59.13;53.83;;;;;;;21.94;100.00;100610.28;4928756;29;20056;-78
2021/07/21 02:49:55;;;;;;;60.80;55.40;;;;;;;21.86;100.00;100613.59;4926950;29;20054;-78
2021/07/21 02:52:25;;;;;;;64.28;58.70;;;;;;;21.87;100.00;100612.50;4932855;29;20050;-78
2021/07/21 02:55:01;;;;;;;61.15;56.05;;;;;;;21.57;100.00;100625.16;4931297;29;20402;-78
2021/07/21 02:57:33;;;;;;;69.03;63.45;;;;;;;21.92;100.00;100628.69;4928714;29;20079;-78
2021/07/21 03:00:07;;;;;;;66.07;60.63;;;;;;;21.82;100.00;100632.28;4929893;29;20044;-78
2021/07/21 03:02:36;;;;;;;69.15;63.33;;;;;;;21.11;100.00;100632.72;4931710;29;20047;-78
2021/07/21 03:05:03;;;;;;;71.25;65.35;;;;;;;20.94;100.00;100639.28;4932023;29;20048;-78
2021/07/21 03:07:31;;;;;;;81.80;75.20;;;;;;;21.66;100.00;100631.56;4926245;29;20465;-78
2021/07/21 03:10:00;;;;;;;72.20;66.38;;;;;;;21.66;100.00;100639.69;4927254;29;20067;-78
2021/07/21 03:12:30;;;;;;;65.95;60.78;;;;;;;21.29;100.00;100632.06;4933075;29;20059;-78
2021/07/21 03:14:57;;;;;;;71.88;65.95;;;;;;;21.10;100.00;100637.31;4925515;29;20498;-78
2021/07/21 03:17:27;;;;;;;77.63;71.45;;;;;;;21.58;100.00;100640.28;4931489;29;20082;-77
2021/07/21 03:19:57;;;;;;;78.65;72.70;;;;;;;20.97;100.00;100640.63;4923303;29;20438;-78
2021/07/21 03:22:26;;;;;;;72.90;67.00;;;;;;;21.16;100.00;100640.78;4929586;29;20473;-77
2021/07/21 03:24:54;;;;;;;68.10;62.47;;;;;;;21.07;100.00;100645.97;4927245;29;20048;-78
2021/07/21 03:27:25;;;;;;;77.05;71.05;;;;;;;20.93;100.00;100644.94;4929681;29;20055;-78
2021/07/21 03:29:54;;;;;;;73.88;68.03;;;;;;;21.02;100.00;100649.47;4925139;29;20401;-79
2021/07/21 03:32:24;;;;;;;74.10;68.00;;;;;;;21.01;100.00;100642.47;4931486;29;20044;-78
2021/07/21 03:34:52;;;;;;;77.40;71.53;;;;;;;21.05;100.00;100648.13;4934385;29;20064;-79
2021/07/21 03:37:20;;;;;;;77.05;70.80;;;;;;;21.47;100.00;100657.66;4928529;29;20657;-78
2021/07/21 03:39:54;;;;;;;85.78;79.35;;;;;;;21.02;100.00;100654.88;4931111;29;20056;-78
2021/07/21 03:42:24;;;;;;;74.45;68.85;;;;;;;21.31;100.00;100656.91;4924120;29;20044;-79
2021/07/21 03:44:52;;;;;;;68.72;62.72;;;;;;;21.43;100.00;100664.72;4927962;29;20139;-78
2021/07/21 03:47:20;;;;;;;70.03;64.32;;;;;;;22.21;100.00;100655.75;4918575;29;20067;-78
2021/07/21 03:49:47;;;;;;;72.53;66.50;;;;;;;21.95;100.00;100655.94;4928255;29;20059;-78
2021/07/21 03:52:14;;;;;;;70.85;65.15;;;;;;;21.53;100.00;100661.94;4928621;29;20250;-78
2021/07/21 03:54:42;;;;;;;73.35;67.40;;;;;;;21.32;100.00;100671.22;4923842;29;20083;-78
2021/07/21 03:57:09;;;;;;;81.00;74.70;;;;;;;21.59;100.00;100674.31;4931790;29;20149;-78
2021/07/21 03:59:38;;;;;;;69.20;63.78;;;;;;;21.52;100.00;100673.84;4933681;29;20054;-78
2021/07/21 04:02:07;;;;;;;67.75;62.50;;;;;;;21.70;100.00;100675.88;4931154;29;20068;-78
2021/07/21 04:04:36;;;;;;;67.20;61.42;;;;;;;21.52;100.00;100671.13;4923052;29;20051;-78
2021/07/21 04:07:04;;;;;;;79.10;72.85;;;;;;;21.41;100.00;100677.69;4923272;29;20044;-78
2021/07/21 04:20:34;;;;;;;74.00;68.43;;;;;;;23.00;100.00;100677.13;5125360;27;20463;-78
2021/07/21 04:23:02;;;;;;;77.50;71.70;;;;;;;21.82;100.00;100678.22;5125951;27;20127;-78
2021/07/21 04:25:30;;;;;;;81.68;75.93;;;;;;;22.28;100.00;100679.78;5126533;28;20077;-78
2021/07/21 04:27:59;;;;;;;85.50;79.22;;;;;;;21.86;100.00;100681.97;5124282;27;20138;-78
2021/07/21 04:30:29;;;;;;;71.50;65.90;;;;;;;21.76;100.00;100682.06;5124532;28;20124;-78
2021/07/21 04:32:56;;;;;;;75.68;69.72;;;;;;;22.08;100.00;100692.34;5124424;27;20484;-78
2021/07/21 04:35:23;;;;;;;82.72;75.68;;;;;;;21.42;100.00;100690.94;5124111;28;20111;-78
2021/07/21 04:37:52;;;;;;;74.38;68.40;;;;;;;21.74;100.00;100697.75;5128404;28;20051;-78
2021/07/21 04:40:19;;;;;;;82.50;76.35;;;;;;;22.16;100.00;100697.19;5126643;28;20564;-77
2021/07/21 04:42:46;;;;;;;71.47;66.50;;;;;;;22.53;100.00;100692.25;5127750;27;20047;-78
2021/07/21 04:45:13;;;;;;;70.90;65.50;;;;;;;21.87;100.00;100691.69;5124545;28;20051;-78
2021/07/21 04:47:41;;;;;;;69.85;64.47;;;;;;;22.39;100.00;100692.94;5131869;27;20051;-79
2021/07/21 04:50:14;;;;;;;69.38;64.00;;;;;;;23.28;100.00;100695.19;5129972;27;20075;-78
2021/07/21 04:52:42;;;;;;;64.28;59.47;;;;;;;22.58;100.00;100693.00;5126387;27;20470;-78
2021/07/21 04:55:11;;;;;;;62.40;57.63;;;;;;;22.06;100.00;100688.31;5126498;28;20055;-78
2021/07/21 04:57:38;;;;;;;71.85;66.68;;;;;;;22.52;100.00;100696.06;5125936;27;20054;-78
2021/07/21 05:00:07;;;;;;;71.00;65.70;;;;;;;22.38;100.00;100698.59;5125926;27;20054;-77
2021/07/21 05:02:34;;;;;;;65.70;60.70;;;;;;;22.18;100.00;100703.13;5128055;28;20051;-78
2021/07/21 05:05:00;;;;;;;58.55;54.05;;;;;;;22.64;100.00;100701.88;5126578;28;20043;-78
2021/07/21 05:07:27;;;;;;;59.25;54.70;;;;;;;22.64;100.00;100702.69;5127090;27;20048;-78
2021/07/21 05:09:54;;;;;;;65.03;60.10;;;;;;;22.27;100.00;100703.31;5126068;28;20058;-78
2021/07/21 05:12:22;;;;;;;66.18;61.35;;;;;;;22.22;100.00;100706.06;5128163;27;20532;-78
2021/07/21 05:14:49;;;;;;;62.53;57.65;;;;;;;22.54;100.00;100702.78;5126465;27;20054;-78
2021/07/21 05:17:15;;;;;;;63.45;58.72;;;;;;;22.64;100.00;100707.28;5125506;27;20490;-77
2021/07/21 05:19:42;;;;;;;58.65;53.83;;;;;;;22.54;100.00;100715.50;5119541;28;20117;-78
2021/07/21 05:22:09;;;;;;;59.40;54.50;;;;;;;22.44;100.00;100707.50;5114635;28;20043;-78
2021/07/21 05:24:36;;;;;;;61.83;56.47;;;;;;;22.37;100.00;100714.03;5110699;28;20072;-78
2021/07/21 05:27:03;;;;;;;63.30;58.45;;;;;;;22.27;100.00;100716.84;5112630;28;20051;-78
2021/07/21 05:29:31;;;;;;;64.07;59.08;;;;;;;22.29;100.00;100721.97;5111897;28;20429;-78
2021/07/21 05:31:58;;;;;;;64.93;59.90;;;;;;;22.54;100.00;100724.44;5111994;28;20055;-78
2021/07/21 05:34:25;;;;;;;62.03;56.55;;;;;;;22.72;100.00;100731.00;5111040;28;20120;-78
2021/07/21 05:36:52;;;;;;;63.42;58.45;;;;;;;22.67;100.00;100730.28;5112512;28;20537;-78
2021/07/21 05:39:18;;;;;;;72.18;67.05;;;;;;;22.64;100.00;100734.34;5109361;28;20043;-78
2021/07/21 05:41:46;;;;;;;58.90;54.17;;;;;;;22.58;100.00;100738.22;5109069;28;20100;-78
2021/07/21 05:44:13;;;;;;;57.85;52.60;;;;;;;22.80;100.00;100735.81;5112341;28;20061;-78
2021/07/21 05:46:41;;;;;;;54.97;50.30;;;;;;;22.96;100.00;100730.25;5109969;28;20043;-78
2021/07/21 05:49:08;;;;;;;52.78;48.47;;;;;;;22.82;100.00;100728.22;5112088;28;20104;-78
2021/07/21 05:51:35;;;;;;;57.58;52.80;;;;;;;22.91;100.00;100724.88;5111028;28;20057;-78
2021/07/21 05:54:01;;;;;;;54.95;50.40;;;;;;;24.29;100.00;100731.91;5111413;28;20113;-78
2021/07/21 05:56:29;;;;;;;45.35;41.25;;;;;;;23.49;100.00;100730.94;5112072;28;20051;-79
2021/07/21 05:58:56;;;;;;;47.58;43.47;;;;;;;23.47;100.00;100727.69;5111975;28;20490;-78
2021/07/21 06:01:23;;;;;;;48.47;44.15;;;;;;;23.53;100.00;100726.53;5111353;28;20047;-78
2021/07/21 06:03:51;;;;;;;48.85;44.97;;;;;;;23.96;100.00;100726.50;5111411;28;20043;-79
2021/07/21 06:06:18;;;;;;;49.97;45.67;;;;;;;23.54;100.00;100722.75;5111015;27;20449;-77
2021/07/21 06:08:45;;;;;;;48.65;45.08;;;;;;;23.47;100.00;100726.91;5113212;28;20051;-79
2021/07/21 06:11:12;;;;;;;44.90;40.85;;;;;;;23.91;100.00;100728.47;5110016;28;20052;-79
2021/07/21 06:13:39;;;;;;;49.42;45.40;;;;;;;25.07;100.00;100732.94;5108855;28;20054;-78
2021/07/21 06:16:07;;;;;;;41.55;37.95;;;;;;;24.62;100.00;100734.63;5110481;28;20432;-80
2021/07/21 06:18:34;;;;;;;42.28;38.67;;;;;;;24.21;100.00;100733.41;5113892;28;20056;-78
2021/07/21 06:21:04;;;;;;;44.78;41.05;;;;;;;23.99;100.00;100728.63;5111755;28;20055;-79
2021/07/21 06:23:31;;;;;;;45.05;41.65;;;;;;;24.47;100.00;100724.84;5113393;28;20504;-78
2021/07/21 06:25:58;;;;;;;42.92;39.42;;;;;;;24.20;100.00;100729.06;5112213;28;20050;-78
2021/07/21 06:28:25;;;;;;;41.40;37.47;;;;;;;24.54;100.00;100730.72;5111331;28;20048;-77
2021/07/21 06:30:51;;;;;;;41.33;37.50;;;;;;;24.49;100.00;100728.06;5108373;28;20059;-78
2021/07/21 06:33:18;;;;;;;42.63;39.22;;;;;;;24.62;100.00;100726.50;5109049;28;20059;-78
2021/07/21 06:35:45;;;;;;;40.70;36.85;;;;;;;24.74;100.00;100717.84;5111333;28;20441;-78
2021/07/21 06:38:14;;;;;;;36.88;33.67;;;;;;;24.44;100.00;100715.38;5110679;28;20044;-78
2021/07/21 06:40:41;;;;;;;41.22;38.03;;;;;;;24.63;100.00;100723.50;5111918;28;20043;-78
2021/07/21 06:43:08;;;;;;;37.47;33.67;;;;;;;24.66;100.00;100727.50;5110713;28;20475;-78
2021/07/21 06:45:35;;;;;;;36.63;33.70;;;;;;;25.53;100.00;100709.44;5110818;27;20075;-78
2021/07/21 06:48:02;;;;;;;37.50;33.92;;;;;;;24.66;100.00;100719.34;5110990;27;20120;-78
2021/07/21 06:50:29;;;;;;;36.03;32.50;;;;;;;24.54;100.00;100714.44;5107784;28;20040;-78
2021/07/21 06:52:56;;;;;;;33.67;30.88;;;;;;;25.32;100.00;100709.88;5112995;27;20051;-78
2021/07/21 06:55:24;;;;;;;36.45;33.08;;;;;;;25.81;100.00;100702.00;5111104;28;20047;-79
2021/07/21 06:57:51;;;;;;;35.90;33.00;;;;;;;25.63;100.00;100700.25;5109889;27;20047;-78
2021/07/21 07:00:18;;;;;;;37.60;34.50;;;;;;;25.48;100.00;100709.56;5111096;28;20104;-77
2021/07/21 07:02:46;;;;;;;34.85;31.75;;;;;;;25.61;100.00;100711.44;5110579;28;20047;-78
2021/07/21 07:05:13;;;;;;;33.17;30.38;;;;;;;25.61;100.00;100713.34;5110026;28;20537;-78
2021/07/21 07:07:40;;;;;;;34.42;31.25;;;;;;;25.86;100.00;100710.06;5110768;28;20112;-82
2021/07/21 07:10:08;;;;;;;36.85;33.55;;;;;;;25.33;100.00;100705.28;5110818;28;20044;-78
2021/07/21 07:12:36;;;;;;;34.33;31.40;;;;;;;25.00;100.00;100707.31;5109781;28;20040;-78
2021/07/21 07:15:04;;;;;;;32.55;29.75;;;;;;;25.59;100.00;100709.00;5111070;28;20492;-78
2021/07/21 07:17:31;;;;;;;33.58;30.63;;;;;;;25.46;100.00;100709.06;5106782;28;20105;-78
2021/07/21 07:19:58;;;;;;;33.38;30.67;;;;;;;25.48;100.00;100710.38;5110478;27;20051;-78
2021/07/21 07:22:24;;;;;;;34.72;31.63;;;;;;;25.24;100.00;100707.09;5110108;28;20123;-78
2021/07/21 07:24:51;;;;;;;34.65;31.70;;;;;;;25.88;100.00;100710.56;5109914;28;20517;-79
2021/07/21 07:27:18;;;;;;;34.47;31.42;;;;;;;25.66;100.00;100713.22;5107140;28;20127;-78
2021/07/21 07:29:46;;;;;;;33.70;30.70;;;;;;;25.80;100.00;100709.34;5106049;28;20071;-78
2021/07/21 07:32:13;;;;;;;34.22;31.02;;;;;;;25.97;100.00;100707.91;5108323;28;20044;-78
2021/07/21 07:34:40;;;;;;;32.33;29.52;;;;;;;25.96;100.00;100711.72;5108113;28;20116;-79
2021/07/21 07:37:07;;;;;;;35.65;32.17;;;;;;;26.03;100.00;100709.41;5109317;28;20128;-78
2021/07/21 07:39:34;;;;;;;35.88;32.67;;;;;;;26.04;100.00;100711.00;5110062;28;20384;-78
2021/07/21 07:42:00;;;;;;;32.17;29.40;;;;;;;26.32;100.00;100714.34;5101167;28;20051;-78
2021/07/21 07:44:27;;;;;;;31.80;29.25;;;;;;;26.36;100.00;100707.19;5102045;28;20434;-77
2021/07/21 07:46:56;;;;;;;32.13;29.30;;;;;;;25.92;100.00;100711.53;5105286;28;20059;-78
2021/07/21 07:49:23;;;;;;;31.42;28.85;;;;;;;26.23;100.00;100714.34;5106883;28;20052;-78
2021/07/21 07:51:49;;;;;;;31.02;27.73;;;;;;;26.30;100.00;100718.53;5110375;28;20054;-78
2021/07/21 07:54:18;;;;;;;30.02;27.17;;;;;;;26.45;100.00;100709.97;5108000;28;20036;-78
2021/07/21 07:56:46;;;;;;;29.60;27.17;;;;;;;26.45;100.00;100709.97;5107569;28;20048;-78
2021/07/21 07:59:13;;;;;;;29.98;27.23;;;;;;;26.78;100.00;100718.63;5107076;28;20716;-78
2021/07/21 08:01:40;;;;;;;31.27;28.77;;;;;;;26.50;100.00;100715.28;5104342;28;20044;-79
2021/07/21 08:04:09;;;;;;;33.22;30.70;;;;;;;26.69;100.00;100709.63;5098125;28;20074;-78
2021/07/21 08:06:36;;;;;;;30.92;28.60;;;;;;;27.08;100.00;100711.53;5099535;28;20105;-78
2021/07/21 08:09:04;;;;;;;31.88;29.25;;;;;;;26.73;100.00;100705.16;5103088;28;20059;-78
2021/07/21 08:11:30;;;;;;;31.33;28.70;;;;;;;26.96;100.00;100711.31;5098401;28;20697;-78
2021/07/21 08:13:57;;;;;;;31.90;28.95;;;;;;;27.08;100.00;100719.69;5108754;28;20051;-79
2021/07/21 08:16:24;;;;;;;31.63;29.13;;;;;;;27.10;100.00;100716.63;5106848;28;20047;-83
2021/07/21 08:18:51;;;;;;;30.63;27.85;;;;;;;27.35;100.00;100715.09;5106225;28;20047;-78
2021/07/21 08:21:19;;;;;;;31.67;28.52;;;;;;;26.87;100.00;100715.91;5099822;28;20065;-78
2021/07/21 08:23:46;;;;;;;29.23;26.73;;;;;;;27.18;100.00;100707.72;5099984;28;20480;-78
2021/07/21 08:26:12;;;;;;;32.40;29.50;;;;;;;26.95;100.00;100702.31;5105571;28;20529;-78
2021/07/21 08:28:39;;;;;;;32.28;29.48;;;;;;;27.20;100.00;100699.19;5102770;28;20062;-78
2021/07/21 08:31:06;;;;;;;33.05;30.33;;;;;;;27.22;100.00;100702.41;5099444;28;20105;-80
2021/07/21 08:33:33;;;;;;;30.20;27.75;;;;;;;27.48;100.00;100702.47;5103622;28;20494;-78
2021/07/21 08:35:59;;;;;;;31.73;28.92;;;;;;;27.57;100.00;100700.53;5100715;28;20112;-80
2021/07/21 08:38:28;;;;;;;32.38;29.48;;;;;;;27.23;100.00;100707.53;5111542;28;20483;-78
2021/07/21 08:40:56;;;;;;;31.55;28.65;;;;;;;27.48;100.00;100703.25;5105905;28;20052;-78
2021/07/21 08:43:23;;;;;;;32.28;29.40;;;;;;;27.45;100.00;100703.09;5097648;28;20052;-78
2021/07/21 08:45:52;;;;;;;31.83;29.13;;;;;;;27.47;100.00;100709.03;5100149;28;20469;-78
2021/07/21 08:48:19;;;;;;;32.00;29.33;;;;;;;27.66;100.00;100708.69;5100400;28;20051;-79
2021/07/21 08:50:46;;;;;;;32.88;30.05;;;;;;;27.60;100.00;100706.16;5103053;28;20044;-78
2021/07/21 08:53:15;;;;;;;32.60;29.70;;;;;;;27.86;100.00;100703.41;5110561;28;20047;-78
2021/07/21 08:55:43;;;;;;;32.83;29.80;;;;;;;27.58;100.00;100702.94;5107765;28;20422;-78
2021/07/21 08:58:11;;;;;;;32.60;29.73;;;;;;;27.64;100.00;100703.59;5108786;28;20476;-78
2021/07/21 09:00:38;;;;;;;31.65;29.05;;;;;;;27.61;100.00;100701.50;5103139;28;20044;-79
2021/07/21 09:03:05;;;;;;;31.20;28.67;;;;;;;27.68;100.00;100698.28;5095836;28;20116;-78
2021/07/21 09:05:32;;;;;;;33.67;30.75;;;;;;;27.90;100.00;100691.88;5112764;28;20043;-78
2021/07/21 09:07:59;;;;;;;32.97;29.95;;;;;;;27.86;100.00;100687.06;5105412;28;20093;-79
2021/07/21 09:10:25;;;;;;;31.20;28.73;;;;;;;27.82;100.00;100691.56;5099532;28;20044;-78
2021/07/21 09:12:54;;;;;;;31.73;28.92;;;;;;;28.09;100.00;100689.59;5104917;28;20147;-78
2021/07/21 09:15:22;;;;;;;31.85;29.13;;;;;;;28.30;100.00;100695.97;5103995;28;20060;-78
2021/07/21 09:18:04;;;;;;;31.45;28.65;;;;;;;28.35;100.00;100691.44;5105358;28;20090;-78
2021/07/21 09:20:31;;;;;;;29.98;27.58;;;;;;;28.26;100.00;100680.53;5109304;28;20044;-79
2021/07/21 09:22:58;;;;;;;32.55;29.77;;;;;;;28.39;100.00;100689.69;5105559;28;20449;-78
2021/07/21 09:25:30;;;;;;;31.98;29.58;;;;;;;28.48;100.00;100685.03;5099990;28;20109;-79
2021/07/21 09:28:00;;;;;;;32.50;29.88;;;;;;;28.29;100.00;100682.63;5106478;28;20487;-79
2021/07/21 09:30:29;;;;;;;33.13;30.42;;;;;;;29.12;100.00;100682.13;5103030;28;20399;-79
2021/07/21 09:33:03;;;;;;;34.33;31.80;;;;;;;28.42;100.00;100680.88;5107517;28;20109;-79
2021/07/21 09:35:31;;;;;;;32.20;29.48;;;;;;;28.70;100.00;100686.69;5103623;28;20116;-81
2021/07/21 09:38:03;;;;;;;31.08;28.58;;;;;;;28.59;100.00;100688.16;5100789;27;20044;-79
2021/07/21 09:40:30;;;;;;;32.03;29.58;;;;;;;28.93;100.00;100679.03;5103834;28;20384;-79
2021/07/21 09:42:58;;;;;;;30.13;27.83;;;;;;;28.91;100.00;100681.28;5110874;28;20051;-79
2021/07/21 09:45:25;;;;;;;29.75;27.45;;;;;;;28.81;100.00;100679.72;5110217;27;20043;-79
2021/07/21 09:47:54;;;;;;;29.73;27.50;;;;;;;28.83;100.00;100682.13;5107664;27;20052;-79
2021/07/21 09:50:27;;;;;;;28.98;26.88;;;;;;;28.84;100.00;100678.28;5105359;28;20052;-80
2021/07/21 09:52:56;;;;;;;31.27;29.10;;;;;;;29.08;100.00;100669.44;5107125;28;20415;-78
2021/07/21 09:55:24;;;;;;;32.85;30.48;;;;;;;29.16;100.00;100674.06;5108881;28;20052;-79
2021/07/21 09:58:05;;;;;;;30.73;28.13;;;;;;;29.27;100.00;100677.22;5107156;28;20054;-79
2021/07/21 10:00:34;;;;;;;29.88;27.65;;;;;;;28.93;100.00;100677.09;5107872;27;20047;-79
2021/07/21 10:03:10;;;;;;;32.20;29.52;;;;;;;29.06;100.00;100677.19;5107208;28;20039;-79
2021/07/21 10:05:53;;;;;;;29.75;27.75;;;;;;;29.42;100.00;100671.13;5107845;28;20039;-79
2021/07/21 10:08:35;;;;;;;31.15;28.48;;;;;;;28.73;100.00;100662.22;5103014;28;20052;-79
2021/07/21 10:11:24;;;;;;;29.65;27.20;;;;;;;29.42;100.00;100663.72;5096871;28;20135;-80
2021/07/21 10:13:55;;;;;;;28.58;26.48;;;;;;;28.91;100.00;100667.59;5104727;28;20052;-78
2021/07/21 10:16:41;;;;;;;28.27;25.77;;;;;;;29.51;98.90;100654.66;5103929;28;20423;-79
2021/07/21 10:19:10;;;;;;;30.38;28.00;;;;;;;29.31;100.00;100651.59;5103829;28;20082;-79
2021/07/21 10:21:38;;;;;;;29.48;27.17;;;;;;;29.74;100.00;100642.22;5104939;28;20453;-78
2021/07/21 10:24:07;;;;;;;28.38;25.92;;;;;;;29.59;100.00;100640.06;5111275;28;20052;-79
2021/07/21 10:26:34;;;;;;;28.00;25.73;;;;;;;29.64;100.00;100637.97;5111008;28;20195;-79
2021/07/21 10:29:03;;;;;;;28.40;26.00;;;;;;;29.41;100.00;100626.59;5111848;28;20047;-79
2021/07/21 10:31:30;;;;;;;26.20;24.17;;;;;;;28.88;100.00;100641.72;5108358;28;20043;-78
2021/07/21 10:33:57;;;;;;;26.90;24.27;;;;;;;29.62;100.00;100631.22;5106970;28;20059;-78
2021/07/21 10:36:24;;;;;;;26.33;24.02;;;;;;;29.40;100.00;100637.84;5109115;28;20051;-78
2021/07/21 10:38:51;;;;;;;27.25;24.90;;;;;;;28.64;100.00;100638.81;5105778;28;20143;-78
2021/07/21 10:41:18;;;;;;;27.63;25.20;;;;;;;29.54;100.00;100613.75;5111259;28;20116;-78
2021/07/21 10:43:47;;;;;;;28.23;25.60;;;;;;;28.99;100.00;100633.97;5104719;28;20467;-78
2021/07/21 10:46:34;;;;;;;27.42;25.13;;;;;;;29.53;100.00;100634.00;5108627;28;20530;-79
2021/07/21 10:49:31;;;;;;;26.88;24.48;;;;;;;29.32;100.00;100631.31;5102446;28;20058;-79
2021/07/21 10:52:42;;;;;;;27.08;24.85;;;;;;;29.78;87.26;100631.41;5109389;28;20402;-78
2021/07/21 10:55:23;;;;;;;28.30;26.13;;;;;;;29.80;100.00;100623.66;5108812;28;20058;-78
2021/07/21 11:00:39;;;;;;;27.75;25.45;;;;;;;29.70;100.00;100627.63;5103572;28;20073;-78
2021/07/21 11:03:22;;;;;;;28.05;25.67;;;;;;;29.62;100.00;100628.50;5107916;28;20051;-77
2021/07/21 11:05:58;;;;;;;30.00;27.38;;;;;;;29.64;86.62;100628.97;5107642;28;20047;-77
2021/07/21 11:08:26;;;;;;;29.25;26.52;;;;;;;29.71;94.37;100631.16;5101763;28;20052;-78
2021/07/21 11:10:55;;;;;;;29.25;26.70;;;;;;;29.66;98.26;100630.22;5109174;28;20128;-77
2021/07/21 11:13:40;;;;;;;28.58;26.08;;;;;;;29.38;93.23;100632.72;5103861;28;20048;-78
2021/07/21 11:16:27;;;;;;;28.33;25.92;;;;;;;29.68;100.00;100629.88;5107519;28;20533;-78
2021/07/21 11:18:55;;;;;;;29.25;26.55;;;;;;;30.00;100.00;100633.75;5105929;28;20056;-77
2021/07/21 11:21:22;;;;;;;29.90;26.77;;;;;;;30.03;99.51;100629.53;5107626;28;20083;-77
2021/07/21 11:24:00;;;;;;;29.52;26.83;;;;;;;29.62;100.00;100629.31;5109465;28;20047;-77
2021/07/21 11:26:45;;;;;;;29.73;27.23;;;;;;;29.43;100.00;100631.69;5107918;28;20468;-77
2021/07/21 11:29:52;;;;;;;31.25;28.50;;;;;;;29.09;100.00;100641.78;5107580;28;20052;-78